RCH111 KPOB-LICZ
Flight info
| Callsign | RCH111 |
|---|---|
| Flight time | N/A |
| Altitude | 33000 |
| Route | CVI DCT NAGGI DCT ATLIC AR9 ZIBUT DCT LARGE DCT JOBOC/M074F330 DCT 42N060W 44N050W 47N040W 47N030W 46N020W DCT KOPAS/N0428F330 DCT STG DCT SUSOS N725 OSPOK DCT NOLVI DCT ORKUM DCT ELSAG DCT ALG DCT BOLOT DCT ERPEM DCT BEKIV M871 LIBRO |
| Aircraft | B737/M-SDFGHIM1RWXYZ/LB1 |
Departure
| Time | N/A |
|---|---|
| Airport | Pope Field (KPOB) |
Arrival
| Time | 2026-04-23 15:50 |
|---|---|
| Airport | Sigonella Navy Air Base (LICZ) |
| Time | Latitude | Longitude | Altitude | Speed | Heading |
|---|---|---|---|---|---|
| 2026-04-23 13:18 | 42.92279 | -8.37662 | 33032 ft | 453 kts | 101° |
| 2026-04-23 13:18 | 42.92022 | -8.33421 | 32987 ft | 454 kts | 100° |
| 2026-04-23 13:19 | 42.91553 | -8.24812 | 33013 ft | 455 kts | 100° |
| 2026-04-23 13:19 | 42.91056 | -8.16199 | 33020 ft | 455 kts | 100° |
| 2026-04-23 13:20 | 42.90520 | -8.07580 | 33015 ft | 455 kts | 101° |
| 2026-04-23 13:20 | 42.89970 | -7.99025 | 33005 ft | 455 kts | 101° |
| 2026-04-23 13:21 | 42.89406 | -7.90400 | 33003 ft | 455 kts | 101° |
| 2026-04-23 13:21 | 42.88839 | -7.81797 | 32991 ft | 455 kts | 101° |
| 2026-04-23 13:22 | 42.88269 | -7.73246 | 32992 ft | 454 kts | 101° |
| 2026-04-23 13:22 | 42.87690 | -7.64652 | 32992 ft | 454 kts | 101° |
| 2026-04-23 13:23 | 42.87105 | -7.56079 | 32973 ft | 454 kts | 101° |
| 2026-04-23 13:23 | 42.86516 | -7.47538 | 32979 ft | 454 kts | 101° |
| 2026-04-23 13:24 | 42.85917 | -7.38938 | 32985 ft | 455 kts | 101° |
| 2026-04-23 13:24 | 42.85315 | -7.30399 | 32984 ft | 455 kts | 101° |
| 2026-04-23 13:25 | 42.84702 | -7.21785 | 32946 ft | 456 kts | 101° |
| 2026-04-23 13:25 | 42.84085 | -7.13177 | 32969 ft | 455 kts | 101° |
| 2026-04-23 13:26 | 42.83459 | -7.04636 | 32982 ft | 457 kts | 101° |
| 2026-04-23 13:26 | 42.82825 | -6.95991 | 32965 ft | 458 kts | 101° |
| 2026-04-23 13:27 | 42.82188 | -6.87382 | 32970 ft | 459 kts | 101° |
| 2026-04-23 13:27 | 42.81657 | -6.80174 | 32929 ft | 459 kts | 101° |
| 2026-04-23 13:28 | 42.81014 | -6.71548 | 32964 ft | 456 kts | 101° |
| 2026-04-23 13:28 | 42.80346 | -6.62963 | 32971 ft | 456 kts | 102° |
| 2026-04-23 13:29 | 42.79681 | -6.54403 | 32969 ft | 455 kts | 101° |
| 2026-04-23 13:29 | 42.79009 | -6.45813 | 32953 ft | 456 kts | 101° |
| 2026-04-23 13:30 | 42.78330 | -6.37209 | 32975 ft | 457 kts | 101° |
| 2026-04-23 13:30 | 42.77648 | -6.28634 | 32974 ft | 458 kts | 101° |
| 2026-04-23 13:31 | 42.76956 | -6.20005 | 32990 ft | 459 kts | 101° |
| 2026-04-23 13:31 | 42.76255 | -6.11352 | 32986 ft | 459 kts | 101° |
| 2026-04-23 13:32 | 42.75552 | -6.02743 | 32985 ft | 459 kts | 101° |
| 2026-04-23 13:32 | 42.74842 | -5.94128 | 33036 ft | 455 kts | 101° |
| 2026-04-23 13:33 | 42.74130 | -5.85589 | 33030 ft | 457 kts | 101° |
| 2026-04-23 13:33 | 42.73404 | -5.76958 | 33043 ft | 459 kts | 101° |
| 2026-04-23 13:34 | 42.72670 | -5.68331 | 33273 ft | 463 kts | 101° |
| 2026-04-23 13:34 | 42.72303 | -5.64009 | 33903 ft | 457 kts | 101° |
| 2026-04-23 13:34 | 42.71939 | -5.59740 | 34517 ft | 450 kts | 101° |
| 2026-04-23 13:34 | 42.71579 | -5.55538 | 35104 ft | 444 kts | 101° |
| 2026-04-23 13:35 | 42.71219 | -5.51385 | 35603 ft | 440 kts | 101° |
| 2026-04-23 13:35 | 42.70859 | -5.47253 | 35976 ft | 439 kts | 101° |
| 2026-04-23 13:35 | 42.70498 | -5.43127 | 36273 ft | 440 kts | 101° |
| 2026-04-23 13:35 | 42.70138 | -5.38989 | 36586 ft | 440 kts | 101° |
| 2026-04-23 13:36 | 42.69779 | -5.34856 | 36933 ft | 439 kts | 101° |
| 2026-04-23 13:36 | 42.69425 | -5.30787 | 37241 ft | 439 kts | 101° |
| 2026-04-23 13:36 | 42.69065 | -5.26657 | 37483 ft | 440 kts | 101° |
| 2026-04-23 13:36 | 42.68702 | -5.22526 | 37786 ft | 440 kts | 101° |
| 2026-04-23 13:37 | 42.68338 | -5.18391 | 38146 ft | 438 kts | 101° |
| 2026-04-23 13:37 | 42.67974 | -5.14279 | 38472 ft | 437 kts | 101° |
| 2026-04-23 13:37 | 42.67609 | -5.10166 | 38733 ft | 438 kts | 101° |
| 2026-04-23 13:37 | 42.67246 | -5.06100 | 38929 ft | 438 kts | 101° |
| 2026-04-23 13:38 | 42.66876 | -5.01976 | 39050 ft | 441 kts | 100° |
| 2026-04-23 13:38 | 42.66106 | -4.93571 | 39042 ft | 452 kts | 100° |
| 2026-04-23 13:39 | 42.65305 | -4.85065 | 39055 ft | 459 kts | 100° |
| 2026-04-23 13:39 | 42.64495 | -4.76423 | 39058 ft | 462 kts | 100° |
| 2026-04-23 13:40 | 42.63681 | -4.67742 | 39040 ft | 462 kts | 100° |
| 2026-04-23 13:40 | 42.62870 | -4.59144 | 39032 ft | 453 kts | 101° |
| 2026-04-23 13:41 | 42.62061 | -4.50665 | 39033 ft | 452 kts | 100° |
| 2026-04-23 13:41 | 42.61251 | -4.42267 | 39047 ft | 451 kts | 100° |
| 2026-04-23 13:42 | 42.60430 | -4.33801 | 39048 ft | 452 kts | 100° |
| 2026-04-23 13:42 | 42.59604 | -4.25352 | 39043 ft | 454 kts | 100° |
| 2026-04-23 13:43 | 42.58763 | -4.16819 | 39039 ft | 456 kts | 100° |
| 2026-04-23 13:43 | 42.57914 | -4.08249 | 39035 ft | 458 kts | 100° |
| 2026-04-23 13:44 | 42.57060 | -3.99717 | 39031 ft | 459 kts | 101° |
| 2026-04-23 13:44 | 42.56189 | -3.91092 | 39035 ft | 460 kts | 101° |
| 2026-04-23 13:45 | 42.55315 | -3.82491 | 39032 ft | 460 kts | 101° |
| 2026-04-23 13:45 | 42.54438 | -3.73918 | 39052 ft | 460 kts | 101° |
| 2026-04-23 13:46 | 42.53550 | -3.65308 | 39058 ft | 460 kts | 101° |
| 2026-04-23 13:46 | 42.52663 | -3.56761 | 39064 ft | 459 kts | 101° |
| 2026-04-23 13:47 | 42.51767 | -3.48199 | 39063 ft | 458 kts | 101° |
| 2026-04-23 13:47 | 42.50865 | -3.39644 | 39045 ft | 458 kts | 100° |
| 2026-04-23 13:48 | 42.49958 | -3.31096 | 39049 ft | 458 kts | 100° |
| 2026-04-23 13:48 | 42.49050 | -3.22604 | 39041 ft | 458 kts | 100° |
| 2026-04-23 13:49 | 42.48129 | -3.14054 | 39027 ft | 458 kts | 100° |
| 2026-04-23 13:49 | 42.47204 | -3.05509 | 39031 ft | 458 kts | 100° |
| 2026-04-23 13:50 | 42.46281 | -2.97032 | 39024 ft | 458 kts | 100° |
| 2026-04-23 13:50 | 42.45338 | -2.88494 | 39034 ft | 458 kts | 101° |
| 2026-04-23 13:51 | 42.43822 | -2.80120 | 39035 ft | 456 kts | 108° |
| 2026-04-23 13:51 | 42.42051 | -2.71910 | 39046 ft | 457 kts | 108° |
| 2026-04-23 13:52 | 42.40288 | -2.63624 | 39042 ft | 458 kts | 107° |
| 2026-04-23 13:52 | 42.38557 | -2.55303 | 39060 ft | 461 kts | 108° |
| 2026-04-23 13:53 | 42.36826 | -2.46946 | 39075 ft | 465 kts | 107° |
| 2026-04-23 13:53 | 42.35083 | -2.38556 | 39058 ft | 458 kts | 107° |
| 2026-04-23 13:54 | 42.33359 | -2.30305 | 39074 ft | 454 kts | 107° |
| 2026-04-23 13:54 | 42.31640 | -2.22120 | 39085 ft | 457 kts | 108° |
| 2026-04-23 13:55 | 42.29889 | -2.13814 | 39072 ft | 462 kts | 108° |
| 2026-04-23 13:55 | 42.28116 | -2.05414 | 39079 ft | 465 kts | 107° |
| 2026-04-23 13:56 | 42.26332 | -1.97034 | 39071 ft | 462 kts | 107° |
| 2026-04-23 13:56 | 42.24558 | -1.88731 | 39064 ft | 458 kts | 107° |
| 2026-04-23 13:57 | 42.22805 | -1.80555 | 39074 ft | 455 kts | 107° |
| 2026-04-23 13:57 | 42.21030 | -1.72312 | 39088 ft | 459 kts | 108° |
| 2026-04-23 13:58 | 42.19233 | -1.64002 | 39096 ft | 465 kts | 107° |
| 2026-04-23 13:58 | 42.17408 | -1.55586 | 39077 ft | 466 kts | 108° |
| 2026-04-23 13:59 | 42.15605 | -1.47305 | 39074 ft | 460 kts | 107° |
| 2026-04-23 13:59 | 42.13797 | -1.39029 | 39088 ft | 458 kts | 107° |
| 2026-04-23 14:00 | 42.12295 | -1.32181 | 39093 ft | 457 kts | 108° |
| 2026-04-23 14:00 | 42.10193 | -1.22630 | 39109 ft | 459 kts | 108° |
| 2026-04-23 14:01 | 42.08343 | -1.14303 | 39126 ft | 466 kts | 107° |
| 2026-04-23 14:01 | 42.06472 | -1.05940 | 39122 ft | 471 kts | 107° |
| 2026-04-23 14:02 | 42.04582 | -0.97505 | 39093 ft | 467 kts | 108° |
| 2026-04-23 14:02 | 42.02715 | -0.89198 | 39110 ft | 461 kts | 108° |
| 2026-04-23 14:03 | 42.00850 | -0.80933 | 39134 ft | 462 kts | 108° |
| 2026-04-23 14:03 | 41.98998 | -0.72706 | 39131 ft | 463 kts | 107° |
| 2026-04-23 14:04 | 41.97121 | -0.64386 | 39142 ft | 464 kts | 107° |
| 2026-04-23 14:04 | 41.95246 | -0.56113 | 39148 ft | 466 kts | 107° |
| 2026-04-23 14:05 | 41.93349 | -0.47773 | 39147 ft | 467 kts | 108° |
| 2026-04-23 14:05 | 41.91444 | -0.39424 | 39156 ft | 467 kts | 108° |
| 2026-04-23 14:06 | 41.89525 | -0.31055 | 39151 ft | 468 kts | 108° |
| 2026-04-23 14:06 | 41.87612 | -0.22755 | 39149 ft | 468 kts | 108° |
| 2026-04-23 14:07 | 41.85684 | -0.14414 | 39151 ft | 467 kts | 108° |
| 2026-04-23 14:07 | 41.82785 | -0.01919 | 39133 ft | 467 kts | 108° |
| 2026-04-23 14:08 | 41.80855 | 0.06362 | 39134 ft | 467 kts | 108° |
| 2026-04-23 14:08 | 41.78913 | 0.14662 | 39155 ft | 466 kts | 108° |
| 2026-04-23 14:09 | 41.76938 | 0.22948 | 39149 ft | 466 kts | 108° |
| 2026-04-23 14:09 | 41.74951 | 0.31169 | 39155 ft | 466 kts | 108° |
| 2026-04-23 14:10 | 41.72970 | 0.39474 | 39159 ft | 466 kts | 108° |
| 2026-04-23 14:10 | 41.71983 | 0.43647 | 39154 ft | 467 kts | 108° |
| 2026-04-23 14:11 | 41.70435 | 0.50187 | 39164 ft | 468 kts | 108° |
| 2026-04-23 14:11 | 41.68462 | 0.58452 | 39162 ft | 468 kts | 108° |
| 2026-04-23 14:12 | 41.66469 | 0.66776 | 39157 ft | 469 kts | 108° |
| 2026-04-23 14:12 | 41.64381 | 0.75071 | 39154 ft | 470 kts | 109° |
| 2026-04-23 14:13 | 41.62212 | 0.83283 | 39149 ft | 471 kts | 109° |
| 2026-04-23 14:13 | 41.60035 | 0.91552 | 39152 ft | 472 kts | 109° |
| 2026-04-23 14:14 | 41.57874 | 0.99792 | 39161 ft | 472 kts | 109° |
| 2026-04-23 14:14 | 41.56051 | 1.06737 | 39159 ft | 473 kts | 109° |
| 2026-04-23 14:15 | 41.53888 | 1.14984 | 39175 ft | 473 kts | 108° |
| 2026-04-23 14:15 | 41.51925 | 1.23374 | 39175 ft | 473 kts | 106° |
| 2026-04-23 14:16 | 41.50024 | 1.31801 | 39183 ft | 474 kts | 106° |
| 2026-04-23 14:16 | 41.48096 | 1.40166 | 39184 ft | 474 kts | 107° |
| 2026-04-23 14:17 | 41.46133 | 1.48559 | 39176 ft | 474 kts | 107° |
| 2026-04-23 14:17 | 41.44160 | 1.56954 | 39185 ft | 473 kts | 106° |
| 2026-04-23 14:18 | 41.42201 | 1.65276 | 39188 ft | 473 kts | 107° |
| 2026-04-23 14:18 | 41.40163 | 1.73648 | 39192 ft | 473 kts | 108° |
| 2026-04-23 14:19 | 41.38061 | 1.81890 | 39193 ft | 473 kts | 108° |
| 2026-04-23 14:19 | 41.35945 | 1.90191 | 39212 ft | 473 kts | 108° |
| 2026-04-23 14:20 | 41.33832 | 1.98508 | 39214 ft | 473 kts | 107° |
| 2026-04-23 14:20 | 41.31734 | 2.06752 | 39208 ft | 473 kts | 108° |
| 2026-04-23 14:21 | 41.29842 | 2.15126 | 39217 ft | 472 kts | 102° |
| 2026-04-23 14:21 | 41.28466 | 2.23662 | 39210 ft | 472 kts | 100° |
| 2026-04-23 14:22 | 41.27139 | 2.32211 | 39214 ft | 472 kts | 100° |
| 2026-04-23 14:22 | 41.25762 | 2.40715 | 39204 ft | 473 kts | 101° |
| 2026-04-23 14:23 | 41.24337 | 2.49277 | 39203 ft | 474 kts | 101° |
| 2026-04-23 14:23 | 41.22896 | 2.57852 | 39195 ft | 474 kts | 101° |
| 2026-04-23 14:24 | 41.21463 | 2.66351 | 39195 ft | 475 kts | 101° |
| 2026-04-23 14:24 | 41.20009 | 2.74936 | 39201 ft | 475 kts | 101° |
| 2026-04-23 14:25 | 41.18559 | 2.83466 | 39197 ft | 476 kts | 101° |
| 2026-04-23 14:25 | 41.17092 | 2.92049 | 39196 ft | 477 kts | 101° |
| 2026-04-23 14:26 | 41.15617 | 3.00643 | 39194 ft | 477 kts | 101° |
| 2026-04-23 14:26 | 41.14137 | 3.09219 | 39202 ft | 477 kts | 101° |
| 2026-04-23 14:27 | 41.12658 | 3.17752 | 39196 ft | 477 kts | 101° |
| 2026-04-23 14:27 | 41.11163 | 3.26338 | 39192 ft | 477 kts | 101° |
| 2026-04-23 14:28 | 41.09663 | 3.34909 | 39195 ft | 477 kts | 101° |
| 2026-04-23 14:28 | 41.08153 | 3.43504 | 39195 ft | 477 kts | 101° |
| 2026-04-23 14:29 | 41.06649 | 3.52029 | 39192 ft | 476 kts | 101° |
| 2026-04-23 14:29 | 41.05123 | 3.60591 | 39193 ft | 477 kts | 101° |
| 2026-04-23 14:30 | 41.03583 | 3.69153 | 39193 ft | 477 kts | 101° |
| 2026-04-23 14:30 | 41.02050 | 3.77657 | 39193 ft | 477 kts | 101° |
| 2026-04-23 14:31 | 41.00501 | 3.86214 | 39195 ft | 477 kts | 101° |
| 2026-04-23 14:31 | 40.98950 | 3.94767 | 39189 ft | 477 kts | 101° |
| 2026-04-23 14:32 | 40.97403 | 4.03262 | 39190 ft | 477 kts | 101° |
| 2026-04-23 14:32 | 40.95842 | 4.11801 | 39189 ft | 477 kts | 101° |
| 2026-04-23 14:33 | 40.94270 | 4.20356 | 39211 ft | 477 kts | 101° |
| 2026-04-23 14:33 | 40.92694 | 4.28899 | 39195 ft | 477 kts | 101° |
| 2026-04-23 14:34 | 40.91121 | 4.37387 | 39188 ft | 477 kts | 101° |
| 2026-04-23 14:34 | 40.89530 | 4.45936 | 39191 ft | 477 kts | 101° |
| 2026-04-23 14:35 | 40.87968 | 4.54400 | 39189 ft | 477 kts | 101° |
| 2026-04-23 14:35 | 40.86400 | 4.62921 | 39198 ft | 477 kts | 101° |
| 2026-04-23 14:36 | 40.85105 | 4.71491 | 39193 ft | 474 kts | 94° |
| 2026-04-23 14:36 | 40.84351 | 4.80092 | 39188 ft | 473 kts | 93° |
| 2026-04-23 14:37 | 40.83634 | 4.88742 | 39191 ft | 473 kts | 93° |
| 2026-04-23 14:37 | 40.82858 | 4.97394 | 39210 ft | 474 kts | 94° |
| 2026-04-23 14:38 | 40.82044 | 5.06051 | 39196 ft | 475 kts | 94° |
| 2026-04-23 14:38 | 40.81222 | 5.14654 | 39190 ft | 475 kts | 94° |
| 2026-04-23 14:39 | 40.80389 | 5.23317 | 39192 ft | 475 kts | 94° |
| 2026-04-23 14:39 | 40.79552 | 5.31972 | 39194 ft | 475 kts | 94° |
| 2026-04-23 14:40 | 40.78714 | 5.40587 | 39196 ft | 476 kts | 94° |
| 2026-04-23 14:40 | 40.77860 | 5.49277 | 39191 ft | 476 kts | 94° |
| 2026-04-23 14:41 | 40.77002 | 5.57951 | 39182 ft | 477 kts | 94° |
| 2026-04-23 14:41 | 40.76139 | 5.66600 | 39186 ft | 477 kts | 94° |
| 2026-04-23 14:42 | 40.75267 | 5.75279 | 39201 ft | 478 kts | 94° |
| 2026-04-23 14:42 | 40.74386 | 5.83987 | 39194 ft | 479 kts | 94° |
| 2026-04-23 14:43 | 40.73503 | 5.92648 | 39187 ft | 479 kts | 94° |
| 2026-04-23 14:43 | 40.72603 | 6.01377 | 39186 ft | 480 kts | 94° |
| 2026-04-23 14:44 | 40.71694 | 6.10094 | 39207 ft | 480 kts | 94° |
| 2026-04-23 14:44 | 40.70783 | 6.18768 | 39193 ft | 481 kts | 94° |
| 2026-04-23 14:45 | 40.69858 | 6.27526 | 39188 ft | 481 kts | 94° |
| 2026-04-23 14:45 | 40.68932 | 6.36224 | 39188 ft | 482 kts | 94° |
| 2026-04-23 14:46 | 40.67991 | 6.44999 | 39189 ft | 482 kts | 94° |
| 2026-04-23 14:46 | 40.67051 | 6.53707 | 39197 ft | 483 kts | 94° |
| 2026-04-23 14:47 | 40.66098 | 6.62471 | 39188 ft | 484 kts | 94° |
| 2026-04-23 14:47 | 40.65138 | 6.71234 | 39188 ft | 484 kts | 94° |
| 2026-04-23 14:48 | 40.64168 | 6.80029 | 39187 ft | 485 kts | 94° |
| 2026-04-23 14:48 | 40.63190 | 6.88828 | 39194 ft | 485 kts | 94° |
| 2026-04-23 14:49 | 40.62206 | 6.97624 | 39185 ft | 486 kts | 94° |
| 2026-04-23 14:49 | 40.61217 | 7.06393 | 39185 ft | 486 kts | 94° |
| 2026-04-23 14:50 | 40.60217 | 7.15201 | 39182 ft | 486 kts | 94° |
| 2026-04-23 14:50 | 40.59218 | 7.23943 | 39182 ft | 486 kts | 94° |
| 2026-04-23 14:51 | 40.58205 | 7.32750 | 39180 ft | 486 kts | 94° |
| 2026-04-23 14:51 | 40.57187 | 7.41551 | 39179 ft | 486 kts | 94° |
| 2026-04-23 14:52 | 40.56512 | 7.50302 | 39169 ft | 478 kts | 82° |
| 2026-04-23 14:52 | 40.57210 | 7.58920 | 39193 ft | 473 kts | 77° |
| 2026-04-23 14:53 | 40.58032 | 7.67460 | 39184 ft | 473 kts | 77° |
| 2026-04-23 14:53 | 40.58798 | 7.76084 | 39167 ft | 474 kts | 77° |
| 2026-04-23 14:54 | 40.59525 | 7.84705 | 39164 ft | 473 kts | 77° |
| 2026-04-23 14:54 | 40.60240 | 7.93267 | 39152 ft | 473 kts | 77° |
| 2026-04-23 14:55 | 40.60957 | 8.01889 | 39153 ft | 473 kts | 77° |
| 2026-04-23 14:55 | 40.61668 | 8.10504 | 39135 ft | 473 kts | 77° |
| 2026-04-23 14:56 | 40.62329 | 8.19126 | 39139 ft | 476 kts | 83° |
| 2026-04-23 14:56 | 40.62128 | 8.23466 | 39131 ft | 485 kts | 95° |
| 2026-04-23 14:56 | 40.61312 | 8.27793 | 39123 ft | 490 kts | 106° |
| 2026-04-23 14:57 | 40.58244 | 8.35874 | 39160 ft | 494 kts | 116° |
| 2026-04-23 14:57 | 40.54838 | 8.43762 | 39162 ft | 495 kts | 116° |
| 2026-04-23 14:58 | 40.51497 | 8.51640 | 39150 ft | 496 kts | 116° |
| 2026-04-23 14:58 | 40.48178 | 8.59599 | 39152 ft | 496 kts | 115° |
| 2026-04-23 14:59 | 40.44862 | 8.67557 | 39156 ft | 496 kts | 116° |
| 2026-04-23 14:59 | 40.41550 | 8.75473 | 39172 ft | 497 kts | 116° |
| 2026-04-23 15:00 | 40.38209 | 8.83435 | 39157 ft | 497 kts | 116° |
| 2026-04-23 15:00 | 40.34821 | 8.91344 | 39154 ft | 497 kts | 118° |
| 2026-04-23 15:01 | 40.31130 | 8.98942 | 39151 ft | 495 kts | 121° |
| 2026-04-23 15:01 | 40.27336 | 9.06468 | 39154 ft | 494 kts | 121° |
| 2026-04-23 15:02 | 40.23565 | 9.13993 | 39165 ft | 494 kts | 121° |
| 2026-04-23 15:02 | 40.20449 | 9.20257 | 39164 ft | 493 kts | 120° |
| 2026-04-23 15:03 | 40.16111 | 9.28994 | 39157 ft | 492 kts | 120° |
| 2026-04-23 15:03 | 40.12377 | 9.36496 | 39164 ft | 491 kts | 121° |
| 2026-04-23 15:04 | 40.09271 | 9.42719 | 39165 ft | 491 kts | 121° |
| 2026-04-23 15:04 | 40.05534 | 9.50188 | 39155 ft | 490 kts | 121° |
| 2026-04-23 15:05 | 40.01808 | 9.57617 | 39178 ft | 489 kts | 121° |
| 2026-04-23 15:05 | 39.98083 | 9.65028 | 39174 ft | 490 kts | 121° |
| 2026-04-23 15:06 | 39.94328 | 9.72480 | 39177 ft | 491 kts | 121° |
| 2026-04-23 15:06 | 39.90586 | 9.79889 | 39176 ft | 492 kts | 121° |
| 2026-04-23 15:07 | 39.86802 | 9.87362 | 39186 ft | 493 kts | 121° |
| 2026-04-23 15:07 | 39.83008 | 9.94838 | 39179 ft | 494 kts | 121° |
| 2026-04-23 15:08 | 39.79230 | 10.02264 | 39167 ft | 494 kts | 121° |
| 2026-04-23 15:09 | 39.73519 | 10.13458 | 39166 ft | 495 kts | 121° |
| 2026-04-23 15:09 | 39.69703 | 10.20917 | 39188 ft | 496 kts | 122° |
| 2026-04-23 15:10 | 39.65885 | 10.28361 | 39175 ft | 497 kts | 122° |
| 2026-04-23 15:10 | 39.62044 | 10.35832 | 39161 ft | 497 kts | 122° |
| 2026-04-23 15:11 | 39.58207 | 10.43276 | 39161 ft | 497 kts | 122° |
| 2026-04-23 15:11 | 39.54364 | 10.50717 | 39141 ft | 496 kts | 122° |
| 2026-04-23 15:12 | 39.50541 | 10.58100 | 39175 ft | 496 kts | 122° |
| 2026-04-23 15:12 | 39.46688 | 10.65526 | 39154 ft | 496 kts | 122° |
| 2026-04-23 15:13 | 39.42834 | 10.72934 | 39156 ft | 496 kts | 122° |
| 2026-04-23 15:13 | 39.38978 | 10.80331 | 39157 ft | 496 kts | 122° |
| 2026-04-23 15:14 | 39.35138 | 10.87679 | 39153 ft | 496 kts | 122° |
| 2026-04-23 15:14 | 39.31276 | 10.95052 | 39153 ft | 496 kts | 122° |
| 2026-04-23 15:15 | 39.27411 | 11.02415 | 39129 ft | 496 kts | 122° |
| 2026-04-23 15:15 | 39.23526 | 11.09799 | 39149 ft | 496 kts | 122° |
| 2026-04-23 15:16 | 39.19633 | 11.17180 | 39151 ft | 497 kts | 122° |
| 2026-04-23 15:16 | 39.15750 | 11.24527 | 39147 ft | 498 kts | 122° |
| 2026-04-23 15:17 | 39.11826 | 11.31932 | 39176 ft | 499 kts | 123° |
| 2026-04-23 15:17 | 39.07921 | 11.39286 | 39145 ft | 500 kts | 123° |
| 2026-04-23 15:18 | 39.03987 | 11.46677 | 39139 ft | 500 kts | 123° |
| 2026-04-23 15:18 | 39.00045 | 11.54068 | 39118 ft | 499 kts | 123° |
| 2026-04-23 15:19 | 38.96135 | 11.61384 | 39132 ft | 499 kts | 123° |
| 2026-04-23 15:19 | 38.92217 | 11.68765 | 39167 ft | 499 kts | 122° |
| 2026-04-23 15:20 | 38.88398 | 11.76227 | 39144 ft | 499 kts | 121° |
| 2026-04-23 15:20 | 38.84620 | 11.83648 | 39135 ft | 500 kts | 122° |
| 2026-04-23 15:21 | 38.80798 | 11.91106 | 39128 ft | 500 kts | 122° |
| 2026-04-23 15:21 | 38.76965 | 11.98542 | 39131 ft | 499 kts | 122° |
| 2026-04-23 15:22 | 38.73125 | 12.05967 | 39140 ft | 499 kts | 122° |
| 2026-04-23 15:22 | 38.69299 | 12.13349 | 39121 ft | 499 kts | 122° |
| 2026-04-23 15:23 | 38.65449 | 12.20763 | 39115 ft | 500 kts | 122° |
| 2026-04-23 15:23 | 38.61609 | 12.28139 | 39115 ft | 500 kts | 122° |
| 2026-04-23 15:24 | 38.57743 | 12.35550 | 39056 ft | 501 kts | 122° |
| 2026-04-23 15:24 | 38.55796 | 12.39276 | 38658 ft | 503 kts | 122° |
| 2026-04-23 15:24 | 38.53862 | 12.42972 | 38193 ft | 498 kts | 122° |
| 2026-04-23 15:24 | 38.51944 | 12.46632 | 37720 ft | 493 kts | 122° |
| 2026-04-23 15:25 | 38.50067 | 12.50211 | 37275 ft | 488 kts | 122° |
| 2026-04-23 15:25 | 38.48186 | 12.53793 | 36838 ft | 484 kts | 122° |
| 2026-04-23 15:25 | 38.46319 | 12.57345 | 36406 ft | 480 kts | 122° |
| 2026-04-23 15:25 | 38.44462 | 12.60875 | 35985 ft | 476 kts | 122° |
| 2026-04-23 15:26 | 38.42619 | 12.64375 | 35502 ft | 474 kts | 123° |
| 2026-04-23 15:26 | 38.40775 | 12.67872 | 35066 ft | 473 kts | 123° |
| 2026-04-23 15:26 | 38.38963 | 12.71306 | 34609 ft | 472 kts | 123° |
| 2026-04-23 15:26 | 38.37126 | 12.74783 | 34155 ft | 472 kts | 123° |
| 2026-04-23 15:27 | 38.35293 | 12.78251 | 33679 ft | 471 kts | 123° |
| 2026-04-23 15:27 | 38.33452 | 12.81728 | 33180 ft | 470 kts | 123° |
| 2026-04-23 15:27 | 38.31647 | 12.85134 | 32735 ft | 468 kts | 123° |
| 2026-04-23 15:27 | 38.29825 | 12.88567 | 32297 ft | 466 kts | 123° |
| 2026-04-23 15:28 | 38.28004 | 12.91995 | 31830 ft | 465 kts | 123° |
| 2026-04-23 15:28 | 38.26197 | 12.95393 | 31389 ft | 463 kts | 123° |
| 2026-04-23 15:28 | 38.24390 | 12.98789 | 30942 ft | 462 kts | 123° |
| 2026-04-23 15:28 | 38.22585 | 13.02176 | 30512 ft | 461 kts | 124° |
| 2026-04-23 15:29 | 38.20808 | 13.05508 | 30065 ft | 460 kts | 124° |
| 2026-04-23 15:29 | 38.19016 | 13.08866 | 29574 ft | 457 kts | 124° |
| 2026-04-23 15:29 | 38.17231 | 13.12204 | 29111 ft | 454 kts | 124° |
| 2026-04-23 15:29 | 38.15456 | 13.15516 | 28615 ft | 451 kts | 124° |
| 2026-04-23 15:30 | 38.13695 | 13.18800 | 28160 ft | 447 kts | 124° |
| 2026-04-23 15:30 | 38.11949 | 13.22063 | 27696 ft | 445 kts | 124° |
| 2026-04-23 15:30 | 38.10235 | 13.25261 | 27199 ft | 443 kts | 124° |
| 2026-04-23 15:30 | 38.08504 | 13.28486 | 26739 ft | 439 kts | 124° |
| 2026-04-23 15:31 | 38.06779 | 13.31695 | 26264 ft | 437 kts | 124° |
| 2026-04-23 15:31 | 38.05066 | 13.34879 | 25762 ft | 436 kts | 124° |
| 2026-04-23 15:31 | 38.03359 | 13.38052 | 25299 ft | 434 kts | 124° |
| 2026-04-23 15:31 | 38.01672 | 13.41176 | 24807 ft | 434 kts | 124° |
| 2026-04-23 15:32 | 37.99952 | 13.44364 | 24315 ft | 429 kts | 125° |
| 2026-04-23 15:32 | 37.98294 | 13.47433 | 23841 ft | 424 kts | 125° |
| 2026-04-23 15:32 | 37.96633 | 13.50507 | 23297 ft | 420 kts | 125° |
| 2026-04-23 15:32 | 37.94990 | 13.53543 | 22766 ft | 414 kts | 125° |
| 2026-04-23 15:33 | 37.93370 | 13.56534 | 22297 ft | 407 kts | 125° |
| 2026-04-23 15:33 | 37.91803 | 13.59425 | 21826 ft | 400 kts | 125° |
| 2026-04-23 15:33 | 37.90243 | 13.62302 | 21373 ft | 393 kts | 125° |
| 2026-04-23 15:33 | 37.88704 | 13.65134 | 20912 ft | 388 kts | 125° |
| 2026-04-23 15:34 | 37.87331 | 13.68038 | 20410 ft | 382 kts | 113° |
| 2026-04-23 15:34 | 37.86311 | 13.71141 | 19896 ft | 379 kts | 109° |
| 2026-04-23 15:34 | 37.85365 | 13.74234 | 19450 ft | 374 kts | 109° |
| 2026-04-23 15:34 | 37.84448 | 13.77243 | 19052 ft | 367 kts | 109° |
| 2026-04-23 15:35 | 37.83522 | 13.80247 | 18603 ft | 364 kts | 109° |
| 2026-04-23 15:35 | 37.82596 | 13.83214 | 18169 ft | 358 kts | 109° |
| 2026-04-23 15:35 | 37.81680 | 13.86119 | 17750 ft | 353 kts | 110° |
| 2026-04-23 15:35 | 37.80773 | 13.88984 | 17306 ft | 348 kts | 110° |
| 2026-04-23 15:36 | 37.79878 | 13.91802 | 16893 ft | 343 kts | 110° |
| 2026-04-23 15:36 | 37.78987 | 13.94603 | 16463 ft | 342 kts | 110° |
| 2026-04-23 15:36 | 37.78100 | 13.97386 | 16061 ft | 340 kts | 110° |
| 2026-04-23 15:36 | 37.77225 | 14.00128 | 15638 ft | 341 kts | 110° |
| 2026-04-23 15:37 | 37.76331 | 14.02904 | 15236 ft | 339 kts | 110° |
| 2026-04-23 15:37 | 37.75436 | 14.05660 | 14782 ft | 339 kts | 110° |
| 2026-04-23 15:37 | 37.74843 | 14.07484 | 14527 ft | 337 kts | 110° |
| 2026-04-23 15:37 | 37.73649 | 14.11155 | 13949 ft | 337 kts | 110° |
| 2026-04-23 15:38 | 37.72757 | 14.13896 | 13474 ft | 337 kts | 110° |
| 2026-04-23 15:38 | 37.71871 | 14.16617 | 13042 ft | 333 kts | 110° |
| 2026-04-23 15:38 | 37.71005 | 14.19277 | 12618 ft | 330 kts | 110° |
| 2026-04-23 15:38 | 37.70133 | 14.21951 | 12211 ft | 328 kts | 111° |
| 2026-04-23 15:39 | 37.69266 | 14.24610 | 11777 ft | 327 kts | 111° |
| 2026-04-23 15:39 | 37.68402 | 14.27257 | 11358 ft | 324 kts | 111° |
| 2026-04-23 15:39 | 37.67543 | 14.29888 | 10921 ft | 323 kts | 111° |
| 2026-04-23 15:39 | 37.66688 | 14.32504 | 10500 ft | 320 kts | 111° |
| 2026-04-23 15:40 | 37.65843 | 14.35084 | 10094 ft | 317 kts | 111° |
| 2026-04-23 15:40 | 37.65024 | 14.37586 | 9934 ft | 300 kts | 111° |
| 2026-04-23 15:40 | 37.64228 | 14.40015 | 9309 ft | 298 kts | 111° |
| 2026-04-23 15:40 | 37.63446 | 14.42396 | 8865 ft | 290 kts | 111° |
| 2026-04-23 15:41 | 37.62684 | 14.44713 | 8466 ft | 281 kts | 111° |
| 2026-04-23 15:41 | 37.61929 | 14.46955 | 8095 ft | 273 kts | 114° |
| 2026-04-23 15:41 | 37.61056 | 14.49041 | 7751 ft | 265 kts | 118° |
| 2026-04-23 15:41 | 37.60172 | 14.51031 | 7434 ft | 264 kts | 118° |
| 2026-04-23 15:42 | 37.59259 | 14.53098 | 7098 ft | 275 kts | 118° |
| 2026-04-23 15:42 | 37.58329 | 14.55226 | 6726 ft | 278 kts | 117° |
| 2026-04-23 15:42 | 37.57389 | 14.57357 | 6357 ft | 278 kts | 121° |
| 2026-04-23 15:42 | 37.55980 | 14.58970 | 5926 ft | 278 kts | 157° |
| 2026-04-23 15:43 | 37.54099 | 14.59250 | 5573 ft | 272 kts | 193° |
| 2026-04-23 15:43 | 37.52321 | 14.58497 | 5231 ft | 268 kts | 204° |
| 2026-04-23 15:43 | 37.50612 | 14.57619 | 4868 ft | 268 kts | 202° |
| 2026-04-23 15:43 | 37.48843 | 14.56863 | 4500 ft | 268 kts | 197° |
| 2026-04-23 15:44 | 37.47014 | 14.56600 | 4220 ft | 265 kts | 168° |
| 2026-04-23 15:44 | 37.45417 | 14.57578 | 4127 ft | 251 kts | 135° |
| 2026-04-23 15:44 | 37.44482 | 14.59329 | 4016 ft | 235 kts | 107° |
| 2026-04-23 15:44 | 37.44127 | 14.61271 | 3930 ft | 222 kts | 96° |
| 2026-04-23 15:45 | 37.43900 | 14.63157 | 3836 ft | 213 kts | 96° |
| 2026-04-23 15:45 | 37.43686 | 14.64959 | 3745 ft | 203 kts | 96° |
| 2026-04-23 15:45 | 37.43484 | 14.66688 | 3584 ft | 195 kts | 96° |
| 2026-04-23 15:45 | 37.43265 | 14.68332 | 3385 ft | 190 kts | 97° |
| 2026-04-23 15:46 | 37.43043 | 14.69944 | 3186 ft | 185 kts | 97° |
| 2026-04-23 15:46 | 37.42825 | 14.71516 | 2930 ft | 180 kts | 98° |
| 2026-04-23 15:46 | 37.42613 | 14.73028 | 2720 ft | 171 kts | 98° |
| 2026-04-23 15:46 | 37.42421 | 14.74479 | 2524 ft | 164 kts | 96° |
| 2026-04-23 15:47 | 37.42260 | 14.75874 | 2322 ft | 159 kts | 97° |
| 2026-04-23 15:47 | 37.42102 | 14.77243 | 2120 ft | 154 kts | 96° |
| 2026-04-23 15:47 | 37.41953 | 14.78538 | 1927 ft | 144 kts | 96° |
| 2026-04-23 15:47 | 37.41801 | 14.79862 | 1856 ft | 168 kts | 97° |
| 2026-04-23 15:48 | 37.41635 | 14.81235 | 1729 ft | 149 kts | 99° |
| 2026-04-23 15:48 | 37.41485 | 14.82460 | 1422 ft | 135 kts | 98° |
| 2026-04-23 15:48 | 37.41353 | 14.83606 | 1111 ft | 131 kts | 96° |
| 2026-04-23 15:48 | 37.41237 | 14.84711 | 916 ft | 127 kts | 98° |
| 2026-04-23 15:49 | 37.41120 | 14.85807 | 772 ft | 125 kts | 97° |
| 2026-04-23 15:49 | 37.40980 | 14.86931 | 672 ft | 133 kts | 97° |
| 2026-04-23 15:49 | 37.40853 | 14.88086 | 523 ft | 138 kts | 97° |
| 2026-04-23 15:49 | 37.40709 | 14.89259 | 337 ft | 132 kts | 97° |
| 2026-04-23 15:50 | 37.40578 | 14.90380 | 135 ft | 128 kts | 97° |
| 2026-04-23 15:50 | 37.40450 | 14.91464 | 92 ft | 116 kts | 99° |
| 2026-04-23 15:50 | 37.40349 | 14.92323 | 93 ft | 82 kts | 98° |
| 2026-04-23 15:50 | 37.40284 | 14.92880 | 93 ft | 47 kts | 98° |
| 2026-04-23 15:51 | 37.40245 | 14.93207 | 93 ft | 35 kts | 98° |
| 2026-04-23 15:51 | 37.40212 | 14.93496 | 94 ft | 29 kts | 98° |
| 2026-04-23 15:51 | 37.40133 | 14.93607 | 95 ft | 18 kts | 188° |
| 2026-04-23 15:51 | 37.40020 | 14.93569 | 94 ft | 16 kts | 228° |
| 2026-04-23 15:52 | 37.40021 | 14.93433 | 95 ft | 16 kts | 278° |
| 2026-04-23 15:52 | 37.40037 | 14.93301 | 95 ft | 15 kts | 278° |
| 2026-04-23 15:52 | 37.40052 | 14.93171 | 96 ft | 16 kts | 278° |
| 2026-04-23 15:52 | 37.40068 | 14.93021 | 96 ft | 19 kts | 278° |
| 2026-04-23 15:53 | 37.40088 | 14.92841 | 97 ft | 22 kts | 278° |
| 2026-04-23 15:53 | 37.40106 | 14.92689 | 95 ft | 14 kts | 280° |
| 2026-04-23 15:53 | 37.40125 | 14.92551 | 94 ft | 18 kts | 279° |
| 2026-04-23 15:53 | 37.40145 | 14.92381 | 95 ft | 21 kts | 278° |
| 2026-04-23 15:54 | 37.40159 | 14.92255 | 96 ft | 23 kts | 278° |
| 2026-04-23 15:54 | 37.40191 | 14.91980 | 93 ft | 23 kts | 278° |
| 2026-04-23 15:54 | 37.40216 | 14.91803 | 95 ft | 12 kts | 301° |
| 2026-04-23 15:54 | 37.40265 | 14.91791 | 94 ft | 12 kts | 7° |
| 2026-04-23 15:55 | 37.40344 | 14.91802 | 93 ft | 11 kts | 7° |
| 2026-04-23 15:55 | 37.40445 | 14.91818 | 94 ft | 11 kts | 354° |
| 2026-04-23 15:55 | 37.40487 | 14.91787 | 96 ft | 11 kts | 320° |
| 2026-04-23 15:55 | 37.40541 | 14.91728 | 93 ft | 10 kts | 318° |
| 2026-04-23 15:56 | 37.40594 | 14.91670 | 93 ft | 10 kts | 318° |
| 2026-04-23 15:56 | 37.40650 | 14.91643 | 93 ft | 8 kts | 352° |
| 2026-04-23 15:56 | 37.40675 | 14.91588 | 93 ft | 8 kts | 279° |
| 2026-04-23 15:56 | 37.40683 | 14.91523 | 93 ft | 7 kts | 278° |
| 2026-04-23 15:57 | 37.40691 | 14.91459 | 94 ft | 7 kts | 278° |
| 2026-04-23 15:57 | 37.40698 | 14.91397 | 93 ft | 7 kts | 278° |
| 2026-04-23 15:57 | 37.40705 | 14.91337 | 93 ft | 7 kts | 278° |
| 2026-04-23 15:57 | 37.40711 | 14.91279 | 93 ft | 7 kts | 278° |
| 2026-04-23 15:58 | 37.40718 | 14.91221 | 96 ft | 7 kts | 278° |
| 2026-04-23 15:58 | 37.40725 | 14.91156 | 93 ft | 8 kts | 278° |
| 2026-04-23 15:58 | 37.40735 | 14.91074 | 95 ft | 11 kts | 278° |
| 2026-04-23 15:58 | 37.40750 | 14.90976 | 93 ft | 12 kts | 296° |
| 2026-04-23 15:59 | 37.40799 | 14.90925 | 95 ft | 9 kts | 295° |
| 2026-04-23 15:59 | 37.40810 | 14.90851 | 94 ft | 2 kts | 278° |
| 2026-04-23 15:59 | 37.40810 | 14.90850 | 94 ft | 0 kts | 278° |